Time;durP1;ratioP1;P1;durP2;ratioP2;P2;SDS_P1;SDS_P2;PMS_P1;PMS_P2;Temp;Humidity;BMP_temperature;BMP_pressure;BME280_temperature;BME280_humidity;BME280_pressure;Samples;Min_cycle;Max_cycle;Signal;HPM_P1;HPM_P2
2022/10/20 00:01:08;;;;;;;5.90;3.40;;;;;;;;;;6283045;22;20015;-43
2022/10/20 00:03:35;;;;;;;7.47;3.40;;;;;;;;;;6258911;22;20015;-43
2022/10/20 00:06:09;;;;;;;7.15;4.30;;;;;;;;;;6252019;22;20023;-43
2022/10/20 00:08:36;;;;;;;7.55;3.88;;;;;;;;;;6285699;22;20450;-43
2022/10/20 00:11:04;;;;;;;8.93;4.50;;;;;;;;;;6255230;22;20060;-42
2022/10/20 00:13:31;;;;;;;6.60;3.40;;;;;;;;;;6287228;22;20077;-45
2022/10/20 00:15:58;;;;;;;7.75;3.13;;;;;;;;;;6283359;22;20015;-46
2022/10/20 00:18:25;;;;;;;8.48;4.55;;;;;;;;;;6280867;22;20061;-43
2022/10/20 00:20:52;;;;;;;9.00;3.83;;;;;;;;;;6284530;22;20045;-43
2022/10/20 00:23:18;;;;;;;6.45;3.85;;;;;;;;;;6281812;22;20480;-43
2022/10/20 00:25:45;;;;;;;5.80;3.30;;;;;;;;;;6254569;22;20018;-43
2022/10/20 00:28:13;;;;;;;8.00;3.05;;;;;;;;;;6284081;22;20516;-45
2022/10/20 00:30:40;;;;;;;8.45;3.80;;;;;;;;;;6282275;22;20026;-44
2022/10/20 00:33:06;;;;;;;8.45;4.13;;;;;;;;;;6283658;22;20382;-44
2022/10/20 00:35:33;;;;;;;11.45;4.30;;;;;;;;;;6282179;22;20366;-44
2022/10/20 00:38:00;;;;;;;8.33;4.97;;;;;;;;;;6285341;22;20483;-43
2022/10/20 00:40:26;;;;;;;7.90;3.47;;;;;;;;;;6282836;22;20022;-46
2022/10/20 00:42:53;;;;;;;5.78;3.33;;;;;;;;;;6260659;22;20011;-42
2022/10/20 00:45:21;;;;;;;7.38;3.35;;;;;;;;;;6283677;22;20019;-43
2022/10/20 00:47:49;;;;;;;6.10;3.00;;;;;;;;;;6280645;22;20023;-43
2022/10/20 00:50:17;;;;;;;7.90;4.63;;;;;;;;;;6281399;22;20026;-46
2022/10/20 00:52:44;;;;;;;6.72;3.08;;;;;;;;;;6261834;22;20019;-45
2022/10/20 00:55:11;;;;;;;7.85;4.25;;;;;;;;;;6277968;22;20011;-44
2022/10/20 00:57:38;;;;;;;5.75;2.88;;;;;;;;;;6285484;22;20373;-46
2022/10/20 01:00:05;;;;;;;6.13;3.10;;;;;;;;;;6278328;22;20104;-43
2022/10/20 01:02:33;;;;;;;5.73;3.43;;;;;;;;;;6283876;22;20049;-51
2022/10/20 01:05:00;;;;;;;9.60;5.50;;;;;;;;;;6253230;22;20069;-44
2022/10/20 01:07:27;;;;;;;6.53;3.45;;;;;;;;;;6284966;22;20082;-43
2022/10/20 01:09:54;;;;;;;6.70;3.38;;;;;;;;;;6251344;22;20624;-44
2022/10/20 01:12:26;;;;;;;5.80;2.88;;;;;;;;;;6251721;22;20481;-43
2022/10/20 01:14:57;;;;;;;6.50;3.63;;;;;;;;;;6286798;22;20128;-47
2022/10/20 01:17:27;;;;;;;8.38;4.68;;;;;;;;;;6287211;22;20602;-46
2022/10/20 01:20:18;;;;;;;5.90;3.50;;;;;;;;;;6276422;22;20023;-47
2022/10/20 01:22:56;;;;;;;7.13;4.43;;;;;;;;;;6173897;22;20025;-45
2022/10/20 01:25:26;;;;;;;7.55;3.58;;;;;;;;;;6284399;22;20444;-45
2022/10/20 01:27:56;;;;;;;5.43;2.80;;;;;;;;;;6288965;22;20475;-44
2022/10/20 01:30:23;;;;;;;5.82;4.10;;;;;;;;;;6275236;22;20011;-43
2022/10/20 01:33:05;;;;;;;6.22;2.80;;;;;;;;;;6288867;22;20034;-44
2022/10/20 01:35:38;;;;;;;8.68;3.80;;;;;;;;;;6281469;22;20015;-45
2022/10/20 01:38:09;;;;;;;7.28;3.95;;;;;;;;;;6285933;22;20018;-43
2022/10/20 01:40:38;;;;;;;6.67;3.77;;;;;;;;;;6283443;22;20019;-44
2022/10/20 01:43:07;;;;;;;9.15;3.15;;;;;;;;;;6289814;22;20011;-43
2022/10/20 01:45:36;;;;;;;7.95;3.85;;;;;;;;;;6279850;22;20019;-43
2022/10/20 01:48:05;;;;;;;6.38;3.05;;;;;;;;;;6221899;23;20094;-43
2022/10/20 01:50:33;;;;;;;6.05;2.97;;;;;;;;;;6227025;23;20102;-43
2022/10/20 01:53:00;;;;;;;5.57;3.03;;;;;;;;;;6217933;23;20070;-42
2022/10/20 01:55:26;;;;;;;7.85;2.70;;;;;;;;;;6223092;23;20019;-43
2022/10/20 01:58:00;;;;;;;8.38;4.18;;;;;;;;;;6223395;23;20023;-44
2022/10/20 02:00:28;;;;;;;6.32;3.10;;;;;;;;;;6222962;22;20447;-43
2022/10/20 02:03:11;;;;;;;5.93;3.13;;;;;;;;;;6208455;23;20478;-44
2022/10/20 02:05:44;;;;;;;7.43;4.27;;;;;;;;;;6225447;23;20016;-43
2022/10/20 02:08:13;;;;;;;13.45;4.35;;;;;;;;;;6225554;23;20020;-46
2022/10/20 02:10:43;;;;;;;6.32;2.95;;;;;;;;;;6220403;23;20016;-43
2022/10/20 02:13:10;;;;;;;8.82;3.65;;;;;;;;;;6220611;23;20018;-45
2022/10/20 02:15:40;;;;;;;7.78;3.38;;;;;;;;;;6224191;23;20098;-44
2022/10/20 02:18:08;;;;;;;9.83;3.43;;;;;;;;;;6219641;23;20013;-43
2022/10/20 02:20:35;;;;;;;11.25;3.92;;;;;;;;;;6220319;23;20044;-45
2022/10/20 02:23:03;;;;;;;7.32;3.50;;;;;;;;;;6219470;23;20062;-43
2022/10/20 02:25:30;;;;;;;5.15;2.97;;;;;;;;;;6219352;23;20332;-43
2022/10/20 02:27:58;;;;;;;5.10;2.65;;;;;;;;;;6220844;23;20012;-45
2022/10/20 02:30:24;;;;;;;7.13;3.43;;;;;;;;;;6225138;23;20119;-42
2022/10/20 02:32:53;;;;;;;6.57;2.15;;;;;;;;;;6218901;23;20020;-42
2022/10/20 02:35:21;;;;;;;8.55;4.03;;;;;;;;;;6226639;23;20044;-43
2022/10/20 02:37:48;;;;;;;6.55;3.00;;;;;;;;;;6222800;23;20016;-43
2022/10/20 02:40:14;;;;;;;8.10;3.70;;;;;;;;;;6221500;23;20467;-42
2022/10/20 02:42:42;;;;;;;6.70;3.17;;;;;;;;;;6221387;23;20016;-43
2022/10/20 02:45:09;;;;;;;8.45;4.40;;;;;;;;;;6223177;23;20355;-44
2022/10/20 02:47:36;;;;;;;7.25;3.92;;;;;;;;;;6272409;22;20034;-46
2022/10/20 02:50:04;;;;;;;9.68;4.72;;;;;;;;;;6284168;22;20019;-44
2022/10/20 02:52:30;;;;;;;7.50;2.88;;;;;;;;;;6282783;22;20011;-43
2022/10/20 02:54:57;;;;;;;5.63;2.90;;;;;;;;;;6256607;22;20068;-42
2022/10/20 02:57:23;;;;;;;8.15;4.05;;;;;;;;;;6281367;22;20011;-43
2022/10/20 02:59:50;;;;;;;7.13;3.70;;;;;;;;;;6284846;22;20068;-43
2022/10/20 03:02:16;;;;;;;6.65;3.70;;;;;;;;;;6281628;22;20016;-44
2022/10/20 03:04:43;;;;;;;7.60;4.20;;;;;;;;;;6284121;22;20084;-45
2022/10/20 03:07:11;;;;;;;10.30;4.07;;;;;;;;;;6283481;22;20141;-46
2022/10/20 03:09:37;;;;;;;6.47;3.38;;;;;;;;;;6255656;22;20030;-43
2022/10/20 03:12:04;;;;;;;6.90;2.50;;;;;;;;;;6255625;22;20457;-42
2022/10/20 03:14:31;;;;;;;6.20;4.00;;;;;;;;;;6284833;22;20020;-42
2022/10/20 03:16:57;;;;;;;6.13;3.67;;;;;;;;;;6284845;22;20445;-44
2022/10/20 03:19:24;;;;;;;6.53;3.37;;;;;;;;;;6286171;22;20015;-43
2022/10/20 03:21:50;;;;;;;6.82;3.20;;;;;;;;;;6247681;22;20704;-43
2022/10/20 03:24:18;;;;;;;9.30;4.00;;;;;;;;;;6284426;22;20011;-43
2022/10/20 03:26:45;;;;;;;10.07;3.13;;;;;;;;;;6282221;22;20015;-43
2022/10/20 03:29:11;;;;;;;9.13;3.97;;;;;;;;;;6285085;22;20012;-46
2022/10/20 03:31:38;;;;;;;9.73;3.80;;;;;;;;;;6283213;22;20012;-43
2022/10/20 03:34:04;;;;;;;5.95;2.38;;;;;;;;;;6276984;22;20019;-44
2022/10/20 03:36:31;;;;;;;7.40;4.32;;;;;;;;;;6287270;22;20019;-44
2022/10/20 03:38:57;;;;;;;6.72;3.35;;;;;;;;;;6282742;22;20157;-43
2022/10/20 03:41:25;;;;;;;6.93;4.30;;;;;;;;;;6280280;22;20011;-43
2022/10/20 03:43:52;;;;;;;8.77;3.97;;;;;;;;;;6284998;22;20015;-44
2022/10/20 03:46:18;;;;;;;9.43;3.85;;;;;;;;;;6257283;22;20473;-44
2022/10/20 03:48:45;;;;;;;5.50;2.88;;;;;;;;;;6282853;22;20037;-43
2022/10/20 03:51:12;;;;;;;6.05;3.83;;;;;;;;;;6284455;22;20446;-42
2022/10/20 03:53:38;;;;;;;9.00;3.75;;;;;;;;;;6288350;22;20432;-45
2022/10/20 03:56:05;;;;;;;9.23;4.13;;;;;;;;;;6280018;22;20053;-43
2022/10/20 03:58:33;;;;;;;9.55;3.63;;;;;;;;;;6287956;22;20088;-43
2022/10/20 04:01:00;;;;;;;6.78;3.92;;;;;;;;;;6282145;22;20019;-43
2022/10/20 04:03:26;;;;;;;8.32;4.05;;;;;;;;;;6284505;22;20011;-43
2022/10/20 04:05:53;;;;;;;7.35;3.67;;;;;;;;;;6281259;22;20011;-44
2022/10/20 04:08:19;;;;;;;11.13;5.33;;;;;;;;;;6284943;22;20019;-43
2022/10/20 04:10:46;;;;;;;5.53;2.58;;;;;;;;;;6282292;22;20345;-42
2022/10/20 04:13:12;;;;;;;10.23;4.85;;;;;;;;;;6284428;22;20019;-43
2022/10/20 04:15:42;;;;;;;7.40;4.65;;;;;;;;;;6283743;22;20076;-45
2022/10/20 04:18:08;;;;;;;7.82;4.40;;;;;;;;;;6284835;22;20011;-43
2022/10/20 04:20:35;;;;;;;8.67;4.03;;;;;;;;;;6257172;22;20019;-43
2022/10/20 04:23:01;;;;;;;6.60;4.32;;;;;;;;;;6286521;22;20073;-43
2022/10/20 04:25:28;;;;;;;8.32;3.97;;;;;;;;;;6283758;22;20015;-44
2022/10/20 04:27:54;;;;;;;6.82;3.53;;;;;;;;;;6283802;22;20069;-48
2022/10/20 04:30:21;;;;;;;8.52;3.97;;;;;;;;;;6284960;22;20138;-44
2022/10/20 04:32:49;;;;;;;7.50;3.63;;;;;;;;;;6283758;22;20445;-43
2022/10/20 04:35:15;;;;;;;6.57;2.95;;;;;;;;;;6255991;22;20114;-43
2022/10/20 04:37:42;;;;;;;7.32;3.90;;;;;;;;;;6285544;22;20608;-44
2022/10/20 04:40:09;;;;;;;7.05;4.43;;;;;;;;;;6281062;22;20019;-45
2022/10/20 04:42:35;;;;;;;7.47;4.25;;;;;;;;;;6285360;22;20508;-44
2022/10/20 04:45:02;;;;;;;8.63;4.90;;;;;;;;;;6284231;22;20015;-43
2022/10/20 04:47:31;;;;;;;6.90;4.03;;;;;;;;;;6278673;22;20019;-43
2022/10/20 04:49:59;;;;;;;7.25;4.07;;;;;;;;;;6284014;22;20461;-44
2022/10/20 04:52:25;;;;;;;7.75;3.53;;;;;;;;;;6280705;22;20019;-44
2022/10/20 04:54:54;;;;;;;8.63;3.72;;;;;;;;;;6286893;22;20011;-43
2022/10/20 04:57:20;;;;;;;6.40;2.87;;;;;;;;;;6288080;22;20027;-42
2022/10/20 04:59:47;;;;;;;7.22;3.80;;;;;;;;;;6283792;22;20026;-44
2022/10/20 05:02:14;;;;;;;7.97;3.88;;;;;;;;;;6284765;22;20562;-43
2022/10/20 05:04:40;;;;;;;10.32;4.38;;;;;;;;;;6284261;22;20389;-48
2022/10/20 05:07:09;;;;;;;7.90;4.43;;;;;;;;;;6284931;22;20446;-43
2022/10/20 05:09:35;;;;;;;10.60;3.70;;;;;;;;;;6253524;22;20007;-43
2022/10/20 05:12:02;;;;;;;8.15;3.33;;;;;;;;;;6261610;22;20023;-42
2022/10/20 05:14:28;;;;;;;10.23;5.03;;;;;;;;;;6281110;22;20099;-44
2022/10/20 05:16:55;;;;;;;7.65;3.75;;;;;;;;;;6288526;22;20020;-44
2022/10/20 05:19:21;;;;;;;8.23;4.68;;;;;;;;;;6284962;22;20026;-44
2022/10/20 05:21:48;;;;;;;8.50;3.93;;;;;;;;;;6278062;22;20022;-44
2022/10/20 05:24:17;;;;;;;8.77;3.83;;;;;;;;;;6284774;22;20362;-43
2022/10/20 05:26:43;;;;;;;6.57;3.75;;;;;;;;;;6287212;22;20030;-45
2022/10/20 05:29:10;;;;;;;7.45;3.40;;;;;;;;;;6285549;22;20011;-42
2022/10/20 05:31:38;;;;;;;6.47;3.50;;;;;;;;;;6280988;22;20043;-45
2022/10/20 05:34:04;;;;;;;6.50;3.80;;;;;;;;;;6286416;22;20489;-42
2022/10/20 05:36:31;;;;;;;5.75;2.60;;;;;;;;;;6281895;22;20015;-43
2022/10/20 05:38:58;;;;;;;7.82;3.92;;;;;;;;;;6286888;22;20054;-43
2022/10/20 05:41:26;;;;;;;7.55;4.22;;;;;;;;;;6259040;22;20027;-44
2022/10/20 05:43:55;;;;;;;8.40;3.75;;;;;;;;;;6284739;22;20019;-44
2022/10/20 05:46:22;;;;;;;8.17;4.93;;;;;;;;;;6245094;22;20051;-45
2022/10/20 05:48:52;;;;;;;16.58;3.25;;;;;;;;;;6221285;23;20447;-43
2022/10/20 05:51:20;;;;;;;8.13;3.88;;;;;;;;;;6224217;23;20565;-43
2022/10/20 05:53:46;;;;;;;6.10;3.03;;;;;;;;;;6222938;23;20016;-43
2022/10/20 05:56:14;;;;;;;6.57;3.33;;;;;;;;;;6224970;23;20035;-46
2022/10/20 05:58:41;;;;;;;7.23;3.63;;;;;;;;;;6216987;23;20405;-43
2022/10/20 06:01:09;;;;;;;9.63;5.03;;;;;;;;;;6224170;23;20043;-46
2022/10/20 06:03:35;;;;;;;8.38;3.60;;;;;;;;;;6222699;23;20028;-44
2022/10/20 06:06:02;;;;;;;5.55;2.83;;;;;;;;;;6225727;23;20020;-45
2022/10/20 06:08:29;;;;;;;6.38;2.80;;;;;;;;;;6221147;23;20022;-43
2022/10/20 06:10:56;;;;;;;10.73;3.47;;;;;;;;;;6223156;23;20046;-43
2022/10/20 06:13:22;;;;;;;6.30;2.95;;;;;;;;;;6222838;23;20078;-44
2022/10/20 06:15:50;;;;;;;5.65;2.60;;;;;;;;;;6225662;23;20016;-43
2022/10/20 06:18:17;;;;;;;5.30;3.10;;;;;;;;;;6220152;23;20397;-43
2022/10/20 06:20:44;;;;;;;4.25;2.38;;;;;;;;;;6222113;23;20066;-43
2022/10/20 06:23:10;;;;;;;4.67;2.33;;;;;;;;;;6216545;23;20012;-43
2022/10/20 06:25:37;;;;;;;6.57;2.65;;;;;;;;;;6227084;23;20074;-43
2022/10/20 06:28:03;;;;;;;8.00;2.60;;;;;;;;;;6217973;23;20027;-44
2022/10/20 06:30:30;;;;;;;8.57;1.67;;;;;;;;;;6222819;23;20429;-43
2022/10/20 06:32:58;;;;;;;3.33;1.33;;;;;;;;;;6223795;23;20099;-43
2022/10/20 06:35:24;;;;;;;4.00;1.20;;;;;;;;;;6224087;23;20442;-43
2022/10/20 06:37:51;;;;;;;2.85;1.08;;;;;;;;;;6224593;23;20058;-43
2022/10/20 06:40:17;;;;;;;2.80;1.02;;;;;;;;;;6220332;23;20023;-43
2022/10/20 06:42:44;;;;;;;2.45;0.80;;;;;;;;;;6227014;23;20063;-44
2022/10/20 06:45:11;;;;;;;3.05;1.10;;;;;;;;;;6224655;23;20023;-45
2022/10/20 06:47:38;;;;;;;2.87;1.03;;;;;;;;;;6273946;22;20125;-44
2022/10/20 06:50:06;;;;;;;2.95;1.05;;;;;;;;;;6283401;22;20027;-44
2022/10/20 06:52:33;;;;;;;2.58;0.90;;;;;;;;;;6283997;22;20012;-44
2022/10/20 06:55:00;;;;;;;2.42;0.80;;;;;;;;;;6280628;22;20061;-43
2022/10/20 06:57:26;;;;;;;2.55;0.93;;;;;;;;;;6285974;22;20019;-46
2022/10/20 06:59:53;;;;;;;2.73;1.17;;;;;;;;;;6258216;22;20342;-46
2022/10/20 07:02:20;;;;;;;2.33;0.70;;;;;;;;;;6288208;22;20502;-46
2022/10/20 07:04:49;;;;;;;5.25;1.23;;;;;;;;;;6279664;22;20015;-47
2022/10/20 07:07:17;;;;;;;3.03;0.95;;;;;;;;;;6285965;22;20077;-43
2022/10/20 07:09:43;;;;;;;2.30;0.60;;;;;;;;;;6284646;22;20015;-44
2022/10/20 07:12:10;;;;;;;2.50;0.97;;;;;;;;;;6286831;22;20073;-44
2022/10/20 07:14:36;;;;;;;2.88;0.70;;;;;;;;;;6276896;22;20572;-45
2022/10/20 07:17:04;;;;;;;3.33;0.80;;;;;;;;;;6261369;22;20015;-44
2022/10/20 07:19:31;;;;;;;5.85;2.15;;;;;;;;;;6263708;22;20019;-44
2022/10/20 07:21:57;;;;;;;1.55;0.35;;;;;;;;;;6266366;22;20365;-43
2022/10/20 07:24:25;;;;;;;2.10;0.73;;;;;;;;;;6279033;22;20015;-43
2022/10/20 07:26:52;;;;;;;5.38;1.00;;;;;;;;;;6257285;22;20043;-44
2022/10/20 07:29:19;;;;;;;3.75;1.27;;;;;;;;;;6285933;22;20019;-44
2022/10/20 07:31:46;;;;;;;3.25;1.00;;;;;;;;;;6282818;22;20073;-45
2022/10/20 07:34:14;;;;;;;4.40;1.67;;;;;;;;;;6286681;22;20019;-46
2022/10/20 07:36:41;;;;;;;2.80;0.97;;;;;;;;;;6280933;22;20011;-46
2022/10/20 07:39:08;;;;;;;4.10;1.15;;;;;;;;;;6284924;22;20018;-43
2022/10/20 07:41:37;;;;;;;3.53;1.10;;;;;;;;;;6282788;22;20041;-43
2022/10/20 07:44:03;;;;;;;2.70;0.88;;;;;;;;;;6284229;22;20411;-42
2022/10/20 07:46:30;;;;;;;2.80;0.90;;;;;;;;;;6260088;22;20092;-43
2022/10/20 07:48:58;;;;;;;2.83;0.93;;;;;;;;;;6278758;22;20018;-42
2022/10/20 07:51:27;;;;;;;2.95;0.70;;;;;;;;;;6288660;22;20016;-44
2022/10/20 07:53:54;;;;;;;2.30;0.50;;;;;;;;;;6278999;22;20437;-43
2022/10/20 07:56:21;;;;;;;8.57;0.82;;;;;;;;;;6278768;22;20486;-42
2022/10/20 07:58:49;;;;;;;2.45;0.65;;;;;;;;;;6277490;22;20016;-44
2022/10/20 08:01:16;;;;;;;4.00;0.70;;;;;;;;;;6279773;22;20019;-44
2022/10/20 08:03:42;;;;;;;2.47;0.77;;;;;;;;;;6279409;22;20015;-49
2022/10/20 08:06:09;;;;;;;3.42;1.20;;;;;;;;;;6254045;22;20023;-46
2022/10/20 08:08:35;;;;;;;3.38;1.05;;;;;;;;;;6280088;22;20061;-47
2022/10/20 08:11:02;;;;;;;4.55;1.42;;;;;;;;;;6281343;22;20016;-47
2022/10/20 08:13:29;;;;;;;3.37;1.00;;;;;;;;;;6282893;22;20016;-46
2022/10/20 08:15:57;;;;;;;2.42;0.47;;;;;;;;;;6281897;22;20073;-46
2022/10/20 08:18:23;;;;;;;3.08;0.75;;;;;;;;;;6274936;22;20021;-46
2022/10/20 08:20:50;;;;;;;2.15;0.82;;;;;;;;;;6246944;22;20019;-44
2022/10/20 08:23:17;;;;;;;2.40;0.70;;;;;;;;;;6256627;22;20859;-44
2022/10/20 08:25:43;;;;;;;3.00;0.70;;;;;;;;;;6268340;22;20015;-43
2022/10/20 08:28:10;;;;;;;2.90;0.73;;;;;;;;;;6272036;22;20450;-44
2022/10/20 08:30:36;;;;;;;3.40;1.75;;;;;;;;;;6265342;22;20031;-44
2022/10/20 08:33:04;;;;;;;4.93;1.02;;;;;;;;;;6244273;22;20350;-43
2022/10/20 08:35:31;;;;;;;1.70;0.40;;;;;;;;;;6238374;22;20016;-45
2022/10/20 08:37:57;;;;;;;4.43;2.00;;;;;;;;;;6269413;22;20016;-48
2022/10/20 08:40:25;;;;;;;1.63;0.30;;;;;;;;;;6265334;22;20500;-45
2022/10/20 08:42:52;;;;;;;5.28;1.85;;;;;;;;;;6271277;22;20023;-44
2022/10/20 08:45:20;;;;;;;2.67;0.40;;;;;;;;;;6268564;22;20429;-46
2022/10/20 08:47:47;;;;;;;2.90;1.10;;;;;;;;;;6272373;22;20027;-45
2022/10/20 08:50:16;;;;;;;2.87;0.73;;;;;;;;;;6261084;22;20307;-43
2022/10/20 08:52:44;;;;;;;5.25;3.08;;;;;;;;;;6274088;22;20072;-45
2022/10/20 08:55:15;;;;;;;3.78;0.75;;;;;;;;;;6267442;22;20475;-47
2022/10/20 08:57:41;;;;;;;3.53;1.05;;;;;;;;;;6267537;22;20436;-47
2022/10/20 09:00:13;;;;;;;6.57;2.17;;;;;;;;;;6261802;22;20019;-45
2022/10/20 09:02:39;;;;;;;3.47;1.40;;;;;;;;;;6270204;22;20384;-45
2022/10/20 09:05:07;;;;;;;5.95;1.98;;;;;;;;;;6269677;22;20023;-45
2022/10/20 09:07:36;;;;;;;1.92;0.50;;;;;;;;;;6270369;22;20054;-46
2022/10/20 09:10:06;;;;;;;2.58;1.70;;;;;;;;;;6264571;22;20020;-46
2022/10/20 09:12:33;;;;;;;13.93;1.27;;;;;;;;;;6271192;22;20015;-44
2022/10/20 09:15:00;;;;;;;3.87;1.00;;;;;;;;;;6265290;22;20015;-45
2022/10/20 09:17:27;;;;;;;3.85;1.42;;;;;;;;;;6272533;22;20011;-48
2022/10/20 09:19:55;;;;;;;3.35;0.98;;;;;;;;;;6262718;22;20019;-44
2022/10/20 09:22:24;;;;;;;3.55;1.73;;;;;;;;;;6270150;22;20527;-43
2022/10/20 09:24:55;;;;;;;2.45;0.80;;;;;;;;;;6263571;22;20019;-44
2022/10/20 09:27:23;;;;;;;1.67;0.37;;;;;;;;;;6242273;22;20630;-43
2022/10/20 09:29:50;;;;;;;6.80;1.45;;;;;;;;;;6238272;22;20081;-43
2022/10/20 09:32:17;;;;;;;2.45;0.77;;;;;;;;;;6269861;22;20019;-46
2022/10/20 09:34:44;;;;;;;1.67;0.40;;;;;;;;;;6271570;22;20102;-43
2022/10/20 09:37:12;;;;;;;2.53;0.60;;;;;;;;;;6268891;22;20022;-43
2022/10/20 09:39:42;;;;;;;2.43;0.77;;;;;;;;;;6277614;22;20027;-43
2022/10/20 09:42:14;;;;;;;5.60;0.75;;;;;;;;;;6284812;22;20042;-43
2022/10/20 09:44:46;;;;;;;1.50;0.40;;;;;;;;;;6288577;22;20026;-43
2022/10/20 09:47:14;;;;;;;2.20;0.60;;;;;;;;;;6283783;22;20027;-43
2022/10/20 09:49:41;;;;;;;1.98;0.52;;;;;;;;;;6287012;22;20015;-44
2022/10/20 09:52:15;;;;;;;1.90;0.40;;;;;;;;;;6279558;22;20016;-46
2022/10/20 09:54:45;;;;;;;2.33;0.60;;;;;;;;;;6287996;22;20106;-43
2022/10/20 09:57:16;;;;;;;2.63;0.60;;;;;;;;;;6283341;22;20025;-43
2022/10/20 09:59:44;;;;;;;1.70;0.52;;;;;;;;;;6283762;22;20015;-44
2022/10/20 10:02:26;;;;;;;2.72;0.80;;;;;;;;;;6288487;22;20521;-43
2022/10/20 10:04:53;;;;;;;2.23;0.63;;;;;;;;;;6284441;22;20011;-43
2022/10/20 10:07:29;;;;;;;1.80;0.30;;;;;;;;;;6285404;22;20029;-45
2022/10/20 10:09:57;;;;;;;2.45;0.85;;;;;;;;;;6283015;22;20015;-44
2022/10/20 10:12:26;;;;;;;1.50;0.30;;;;;;;;;;6262881;22;20019;-45
2022/10/20 10:14:54;;;;;;;3.35;0.68;;;;;;;;;;6287372;22;20039;-45
2022/10/20 10:17:28;;;;;;;1.37;0.30;;;;;;;;;;6257626;22;20023;-47
2022/10/20 10:19:55;;;;;;;1.60;0.30;;;;;;;;;;6275349;22;20011;-45
2022/10/20 10:22:22;;;;;;;2.05;0.22;;;;;;;;;;6278527;22;20015;-43
2022/10/20 10:24:49;;;;;;;3.35;0.95;;;;;;;;;;6285241;22;20034;-43
2022/10/20 10:27:20;;;;;;;1.77;0.50;;;;;;;;;;6287554;22;20062;-43
2022/10/20 10:29:47;;;;;;;1.83;0.60;;;;;;;;;;6284794;22;20078;-44
2022/10/20 10:32:15;;;;;;;1.40;0.30;;;;;;;;;;6258735;22;20289;-46
2022/10/20 10:34:45;;;;;;;7.47;1.05;;;;;;;;;;6285215;22;20018;-45
2022/10/20 10:37:12;;;;;;;1.35;0.35;;;;;;;;;;6259434;22;20085;-43
2022/10/20 10:39:39;;;;;;;2.05;0.50;;;;;;;;;;6257624;22;20027;-45
2022/10/20 10:42:17;;;;;;;2.50;0.93;;;;;;;;;;6285537;22;20014;-43
2022/10/20 10:44:49;;;;;;;2.10;0.40;;;;;;;;;;6288264;22;20011;-44
2022/10/20 10:47:27;;;;;;;4.57;0.70;;;;;;;;;;6275306;22;20023;-47
2022/10/20 10:49:57;;;;;;;1.90;0.60;;;;;;;;;;6287842;22;20019;-43
2022/10/20 10:52:31;;;;;;;2.20;0.30;;;;;;;;;;6283942;22;20064;-43
2022/10/20 10:55:03;;;;;;;7.30;0.83;;;;;;;;;;6282928;22;20018;-44
2022/10/20 10:57:31;;;;;;;3.90;0.85;;;;;;;;;;6258611;22;20106;-45
2022/10/20 10:59:59;;;;;;;1.80;0.40;;;;;;;;;;6282176;22;20011;-44
2022/10/20 11:02:34;;;;;;;2.10;0.57;;;;;;;;;;6287881;22;20021;-43
2022/10/20 11:05:13;;;;;;;3.00;0.47;;;;;;;;;;6274491;22;20056;-43
2022/10/20 11:07:42;;;;;;;1.50;0.30;;;;;;;;;;6289284;22;20019;-44
2022/10/20 11:10:10;;;;;;;1.45;0.30;;;;;;;;;;6283063;22;20503;-44
2022/10/20 11:12:49;;;;;;;1.73;0.32;;;;;;;;;;6285765;22;20015;-44
2022/10/20 11:15:21;;;;;;;1.20;0.20;;;;;;;;;;6253389;22;20019;-43
2022/10/20 11:17:54;;;;;;;1.58;0.30;;;;;;;;;;6286068;22;20019;-43
2022/10/20 11:20:30;;;;;;;2.00;0.60;;;;;;;;;;6284643;22;20072;-44
2022/10/20 11:23:14;;;;;;;1.30;0.20;;;;;;;;;;6285941;22;20488;-43
2022/10/20 11:25:43;;;;;;;1.50;0.38;;;;;;;;;;6266555;22;20023;-43
2022/10/20 11:28:21;;;;;;;1.60;0.40;;;;;;;;;;6280956;22;20023;-44
2022/10/20 11:30:47;;;;;;;1.30;0.25;;;;;;;;;;6286336;22;20062;-43
2022/10/20 11:33:18;;;;;;;1.40;0.30;;;;;;;;;;6279261;22;20432;-42
2022/10/20 11:35:48;;;;;;;1.60;0.35;;;;;;;;;;6291198;22;20086;-43
2022/10/20 11:38:17;;;;;;;1.65;0.40;;;;;;;;;;6280910;22;20447;-43
2022/10/20 11:40:44;;;;;;;1.50;0.30;;;;;;;;;;6285964;22;20392;-46
2022/10/20 11:43:14;;;;;;;1.40;0.30;;;;;;;;;;6283749;22;20011;-47
2022/10/20 11:45:45;;;;;;;1.40;0.30;;;;;;;;;;6283511;22;20018;-46
2022/10/20 11:48:15;;;;;;;3.75;0.68;;;;;;;;;;6285366;22;20019;-47
2022/10/20 11:50:48;;;;;;;1.70;0.50;;;;;;;;;;6280941;22;20083;-43
2022/10/20 11:53:27;;;;;;;1.70;0.45;;;;;;;;;;6283407;22;20314;-43
2022/10/20 11:56:07;;;;;;;1.63;0.35;;;;;;;;;;6286359;22;20450;-45
2022/10/20 11:58:45;;;;;;;1.70;0.40;;;;;;;;;;6282093;22;20069;-45
2022/10/20 12:01:33;;;;;;;2.03;0.60;;;;;;;;;;6284983;22;20407;-45
2022/10/20 12:04:30;;;;;;;1.67;0.50;;;;;;;;;;6272022;22;20295;-46
2022/10/20 12:07:05;;;;;;;1.70;0.50;;;;;;;;;;6187093;23;20105;-43
2022/10/20 12:09:40;;;;;;;1.63;0.40;;;;;;;;;;6262275;22;20031;-43
2022/10/20 12:12:09;;;;;;;1.50;0.40;;;;;;;;;;6286587;22;20015;-42
2022/10/20 12:14:38;;;;;;;1.90;0.40;;;;;;;;;;6281292;22;20065;-44
2022/10/20 12:17:28;;;;;;;2.35;0.77;;;;;;;;;;6281049;22;20023;-43
2022/10/20 12:20:10;;;;;;;1.95;0.47;;;;;;;;;;6243766;22;20077;-43
2022/10/20 12:22:48;;;;;;;1.75;0.47;;;;;;;;;;6277614;22;20023;-44
2022/10/20 12:25:20;;;;;;;1.83;0.70;;;;;;;;;;6278944;22;20019;-43
2022/10/20 12:27:46;;;;;;;2.15;0.60;;;;;;;;;;6279048;22;20122;-43
2022/10/20 12:30:31;;;;;;;6.45;0.88;;;;;;;;;;6279058;22;20437;-45
2022/10/20 12:33:09;;;;;;;1.95;0.52;;;;;;;;;;6277135;22;20020;-43
2022/10/20 12:35:53;;;;;;;2.25;0.50;;;;;;;;;;6283878;22;20041;-46
2022/10/20 12:38:22;;;;;;;2.90;0.43;;;;;;;;;;6269300;22;20023;-44
2022/10/20 12:40:53;;;;;;;1.75;0.45;;;;;;;;;;6274971;22;20012;-44
2022/10/20 12:43:32;;;;;;;2.72;0.80;;;;;;;;;;6275393;22;20475;-44
2022/10/20 12:46:03;;;;;;;2.10;0.68;;;;;;;;;;6273174;22;20472;-42
2022/10/20 12:48:32;;;;;;;1.30;0.40;;;;;;;;;;6277828;22;20046;-44
2022/10/20 12:51:03;;;;;;;2.13;0.50;;;;;;;;;;6280635;22;20011;-44
2022/10/20 12:53:31;;;;;;;3.28;0.30;;;;;;;;;;6279818;22;20060;-44
2022/10/20 12:55:59;;;;;;;1.65;0.50;;;;;;;;;;6277529;22;20519;-43
2022/10/20 12:58:27;;;;;;;2.33;0.40;;;;;;;;;;6277008;22;20360;-43
2022/10/20 13:01:05;;;;;;;3.17;0.30;;;;;;;;;;6278518;22;20560;-42
2022/10/20 13:03:39;;;;;;;3.30;0.70;;;;;;;;;;6282947;22;20023;-42
2022/10/20 13:06:25;;;;;;;4.93;0.60;;;;;;;;;;6279391;22;20086;-43
2022/10/20 13:09:06;;;;;;;1.83;0.45;;;;;;;;;;6276576;22;20671;-43
2022/10/20 13:11:41;;;;;;;2.00;0.65;;;;;;;;;;6265670;22;20023;-44
2022/10/20 13:14:15;;;;;;;2.75;0.73;;;;;;;;;;6278380;22;20030;-45
2022/10/20 13:16:44;;;;;;;2.60;0.73;;;;;;;;;;6281635;22;20019;-44
2022/10/20 13:19:13;;;;;;;2.25;0.65;;;;;;;;;;6274927;22;20015;-43
2022/10/20 13:21:40;;;;;;;1.63;0.35;;;;;;;;;;6282204;22;20016;-42
2022/10/20 13:24:12;;;;;;;1.60;0.40;;;;;;;;;;6282453;22;20015;-43
2022/10/20 13:26:46;;;;;;;2.03;0.38;;;;;;;;;;6251326;22;20015;-45
2022/10/20 13:29:13;;;;;;;1.20;0.20;;;;;;;;;;6282765;22;20396;-43
2022/10/20 13:31:43;;;;;;;1.75;0.45;;;;;;;;;;6278497;22;20049;-47
2022/10/20 13:34:13;;;;;;;1.75;0.40;;;;;;;;;;6259801;22;20064;-42
2022/10/20 13:36:47;;;;;;;2.00;0.50;;;;;;;;;;6281684;22;20016;-44
2022/10/20 13:39:16;;;;;;;3.80;1.15;;;;;;;;;;6285447;22;20041;-42
2022/10/20 13:41:45;;;;;;;1.53;0.30;;;;;;;;;;6284947;22;20072;-42
2022/10/20 13:44:21;;;;;;;1.65;0.40;;;;;;;;;;6256095;22;20069;-43
2022/10/20 13:46:53;;;;;;;3.00;0.60;;;;;;;;;;6288017;22;20023;-44
2022/10/20 13:49:37;;;;;;;2.80;0.68;;;;;;;;;;6287225;22;20456;-43
2022/10/20 13:52:05;;;;;;;3.50;0.73;;;;;;;;;;6254682;22;20023;-42
2022/10/20 13:54:34;;;;;;;1.60;0.40;;;;;;;;;;6286867;22;20501;-43
2022/10/20 13:57:01;;;;;;;2.70;0.73;;;;;;;;;;6283146;22;20011;-44
2022/10/20 13:59:30;;;;;;;1.63;0.40;;;;;;;;;;6288875;22;20365;-46
2022/10/20 14:01:58;;;;;;;1.63;0.40;;;;;;;;;;6277691;22;20389;-45
2022/10/20 14:04:25;;;;;;;1.67;0.38;;;;;;;;;;6285844;22;20015;-43
2022/10/20 14:06:52;;;;;;;1.50;0.40;;;;;;;;;;6281854;22;20084;-43
2022/10/20 14:09:20;;;;;;;1.95;0.77;;;;;;;;;;6283137;22;20012;-43
2022/10/20 14:11:47;;;;;;;2.70;0.70;;;;;;;;;;6283973;22;20065;-42
2022/10/20 14:14:15;;;;;;;1.60;0.30;;;;;;;;;;6285145;22;20410;-45
2022/10/20 14:16:49;;;;;;;1.77;0.50;;;;;;;;;;6288518;22;20445;-44
2022/10/20 14:19:16;;;;;;;3.17;0.63;;;;;;;;;;6286250;22;20475;-42
2022/10/20 14:21:43;;;;;;;1.67;0.40;;;;;;;;;;6286055;22;20042;-44
2022/10/20 14:24:13;;;;;;;2.20;0.70;;;;;;;;;;6287832;22;20016;-44
2022/10/20 14:26:42;;;;;;;3.25;0.60;;;;;;;;;;6282804;22;20698;-43
2022/10/20 14:29:10;;;;;;;1.98;0.57;;;;;;;;;;6286627;22;20029;-44
2022/10/20 14:31:37;;;;;;;3.00;0.93;;;;;;;;;;6257408;22;20019;-43
2022/10/20 14:34:04;;;;;;;1.70;0.45;;;;;;;;;;6283028;22;20060;-43
2022/10/20 14:36:31;;;;;;;2.33;0.63;;;;;;;;;;6279418;22;20670;-45
2022/10/20 14:38:59;;;;;;;2.30;0.60;;;;;;;;;;6284215;22;20019;-43
2022/10/20 14:41:27;;;;;;;1.80;0.50;;;;;;;;;;6283976;22;20015;-42
2022/10/20 14:43:55;;;;;;;2.40;0.70;;;;;;;;;;6286419;22;20400;-42
2022/10/20 14:46:28;;;;;;;1.63;0.50;;;;;;;;;;6286523;22;20392;-43
2022/10/20 14:48:55;;;;;;;2.10;0.60;;;;;;;;;;6283190;22;20015;-43
2022/10/20 14:51:38;;;;;;;4.05;0.90;;;;;;;;;;6259639;22;20327;-47
2022/10/20 14:54:23;;;;;;;3.80;0.80;;;;;;;;;;6286972;22;20086;-43